Archival Weather

Norman Y Mineta San Jose Intl

San Jose, California (KSJC)

Report from: Wednesday, February 28, 2024 4:53 PM PST
Current time: Saturday, June 22, 2024 3:13 AM PDT

Current weather – Weather history – Daily summaries
Weather forecast

Temperature18.3°C (64.9°F)
Dew point1.7°C (35.1°F)
Winds 12 kts (6.2 m/s, 13.8 mph) North-Northwest (330°)
Visibility10 mi. (16.1 km)
Clouds Sky clear
Altimeter29.99 in.Hg (1016 mB)
Relative humidity33 %
Density altitude424 ft. (129 m)
Sea-level pressure101.5 kPa (1015 mB, 29.98 in.Hg)
Remarks Automated weather observing station with precipitation discriminator
Flight conditions Visual Meteorological Conditions
Raw dataKSJC 290053Z 33012KT 10SM CLR 18/02 A2999 RMK AO2 SLP153 T01830017
An error has occurred. This application may no longer respond until reloaded. Reload 🗙